createdAt,value
2022-08-01T00:00:13.238Z,78.19
2022-08-01T00:01:13.230Z,77.98
2022-08-01T00:02:13.242Z,78.59
2022-08-01T00:03:13.212Z,78.19
2022-08-01T00:04:13.194Z,78.49
2022-08-01T00:05:13.195Z,78.49
2022-08-01T00:06:13.152Z,78.08
2022-08-01T00:07:13.163Z,78.69
2022-08-01T00:08:13.143Z,78.49
2022-08-01T00:09:23.641Z,78.39
2022-08-01T00:10:14.113Z,78.59
2022-08-01T00:11:13.109Z,78.79
2022-08-01T00:12:13.144Z,78.49
2022-08-01T00:13:13.075Z,78.28
2022-08-01T00:14:13.054Z,78.99
2022-08-01T00:15:13.064Z,78.89
2022-08-01T00:16:13.028Z,78.89
2022-08-01T00:17:13.025Z,79.80
2022-08-01T00:18:13.005Z,79.13
2022-08-01T00:19:13.004Z,80.04
2022-08-01T00:20:12.998Z,79.23
2022-08-01T00:21:12.976Z,80.54
2022-08-01T00:22:12.959Z,79.63
2022-08-01T00:23:12.955Z,79.13
2022-08-01T00:24:14.353Z,79.23
2022-08-01T00:25:12.936Z,79.93
2022-08-01T00:26:12.917Z,79.93
2022-08-01T00:27:12.894Z,80.54
2022-08-01T00:28:12.877Z,79.93
2022-08-01T00:30:09.583Z,80.64
2022-08-01T00:30:15.078Z,80.44
2022-08-01T00:31:12.835Z,80.84
2022-08-01T00:32:12.819Z,80.54
2022-08-01T00:33:12.819Z,80.88
2022-08-01T00:34:12.821Z,81.08
2022-08-01T00:35:12.809Z,80.58
2022-08-01T00:36:12.780Z,80.78
2022-08-01T00:37:14.090Z,80.98
2022-08-01T00:38:12.750Z,80.98
2022-08-01T00:39:12.729Z,80.68
2022-08-01T00:40:12.740Z,81.18
2022-08-01T00:41:12.711Z,80.68
2022-08-01T00:42:12.694Z,81.38
2022-08-01T00:43:12.701Z,81.28
2022-08-01T00:44:12.761Z,81.99
2022-08-01T00:45:12.678Z,81.59
2022-08-01T00:46:12.642Z,81.48
2022-08-01T00:47:12.640Z,81.59
2022-08-01T00:48:12.632Z,81.28
2022-08-01T00:49:12.678Z,81.79
2022-08-01T00:50:12.608Z,81.79
2022-08-01T00:51:12.572Z,81.48
2022-08-01T00:52:12.564Z,81.18
2022-08-01T00:53:18.989Z,81.89
2022-08-01T00:54:13.554Z,81.79
2022-08-01T00:55:15.068Z,81.89
2022-08-01T00:56:12.503Z,81.18
2022-08-01T00:57:12.510Z,81.38
2022-08-01T00:58:12.593Z,81.38
2022-08-01T00:59:12.495Z,81.48
2022-08-01T01:00:12.479Z,81.48
2022-08-01T01:01:12.515Z,81.93
2022-08-01T01:02:15.572Z,81.82
2022-08-01T01:03:12.434Z,82.03
2022-08-01T01:04:13.415Z,81.93
2022-08-01T01:05:12.405Z,81.93
2022-08-01T01:06:12.386Z,81.82
2022-08-01T01:07:12.386Z,82.03
2022-08-01T01:08:12.368Z,81.62
2022-08-01T01:09:12.365Z,81.82
2022-08-01T01:10:12.447Z,81.82
2022-08-01T01:11:12.326Z,81.62
2022-08-01T01:12:12.305Z,81.82
2022-08-01T01:13:12.307Z,81.82
2022-08-01T01:14:12.309Z,81.62
2022-08-01T01:15:12.286Z,81.82
2022-08-01T01:16:12.247Z,82.17
2022-08-01T01:17:12.257Z,81.87
2022-08-01T01:18:12.239Z,81.67
2022-08-01T01:19:12.247Z,82.37
2022-08-01T01:20:12.220Z,82.47
2022-08-01T01:21:12.191Z,82.17
2022-08-01T01:22:12.178Z,82.37
2022-08-01T01:23:12.179Z,82.47
2022-08-01T01:24:12.177Z,82.27
2022-08-01T01:25:12.171Z,82.67
2022-08-01T01:26:12.119Z,82.37
2022-08-01T01:27:12.127Z,82.27
2022-08-01T01:28:12.110Z,82.37
2022-08-01T01:29:12.092Z,82.67
2022-08-01T01:30:12.122Z,82.17
2022-08-01T01:31:12.080Z,82.47
2022-08-01T01:32:12.060Z,82.57
2022-08-01T01:33:12.058Z,82.27
2022-08-01T01:34:12.022Z,82.98
2022-08-01T01:35:12.030Z,83.18
2022-08-01T01:36:12.024Z,83.68
2022-08-01T01:37:12.993Z,83.48
2022-08-01T01:38:11.981Z,83.38
2022-08-01T01:39:11.964Z,83.38
2022-08-01T01:40:11.963Z,82.98
2022-08-01T01:41:11.954Z,82.87
2022-08-01T01:42:11.924Z,83.48
2022-08-01T01:43:11.964Z,83.98
2022-08-01T01:44:11.908Z,83.28
2022-08-01T01:45:11.896Z,83.48
2022-08-01T01:46:11.886Z,83.07
2022-08-01T01:47:11.877Z,82.98
2022-08-01T01:48:11.844Z,83.48
2022-08-01T01:49:11.925Z,83.48
2022-08-01T01:50:11.840Z,82.98
2022-08-01T01:51:11.816Z,83.48
2022-08-01T01:52:11.798Z,83.38
2022-08-01T01:53:15.023Z,83.78
2022-08-01T01:54:11.787Z,83.48
2022-08-01T01:55:11.777Z,83.48
2022-08-01T01:56:11.746Z,83.38
2022-08-01T01:57:11.736Z,83.07
2022-08-01T01:58:11.715Z,83.88
2022-08-01T01:59:11.717Z,82.87
2022-08-01T02:00:11.706Z,83.78
2022-08-01T02:01:14.414Z,83.78
2022-08-01T02:02:12.031Z,83.88
2022-08-01T02:03:11.661Z,83.28
2022-08-01T02:04:11.659Z,83.18
2022-08-01T02:05:11.663Z,83.38
2022-08-01T02:06:11.618Z,84.19
2022-08-01T02:07:11.610Z,83.78
2022-08-01T02:08:11.599Z,83.58
2022-08-01T02:09:11.587Z,83.07
2022-08-01T02:10:11.570Z,82.87
2022-08-01T02:11:11.560Z,83.58
2022-08-01T02:12:11.819Z,82.98
2022-08-01T02:13:11.542Z,83.44
2022-08-01T02:14:11.521Z,83.44
2022-08-01T02:15:11.511Z,83.34
2022-08-01T02:16:11.491Z,82.84
2022-08-01T02:17:11.472Z,83.44
2022-08-01T02:18:11.462Z,82.73
2022-08-01T02:19:11.454Z,83.34
2022-08-01T02:20:11.452Z,82.93
2022-08-01T02:21:11.443Z,83.24
2022-08-01T02:22:11.414Z,82.64
2022-08-01T02:23:11.414Z,83.34
2022-08-01T02:24:11.386Z,83.04
2022-08-01T02:25:11.377Z,82.64
2022-08-01T02:26:11.754Z,82.64
2022-08-01T02:27:11.355Z,82.93
2022-08-01T02:28:11.344Z,82.73
2022-08-01T02:29:11.334Z,83.04
2022-08-01T02:30:11.307Z,83.30
2022-08-01T02:31:11.316Z,82.70
2022-08-01T02:32:11.295Z,83.30
2022-08-01T02:33:15.698Z,83.00
2022-08-01T02:34:12.266Z,82.59
2022-08-01T02:35:11.247Z,82.79
2022-08-01T02:36:30.854Z,83.00
2022-08-01T02:37:12.219Z,82.39
2022-08-01T02:38:11.200Z,81.99
2022-08-01T02:39:11.213Z,82.50
2022-08-01T02:40:14.072Z,82.79
2022-08-01T02:41:11.204Z,82.29
2022-08-01T02:42:11.179Z,82.09
2022-08-01T02:43:11.147Z,82.79
2022-08-01T02:44:11.141Z,82.29
2022-08-01T02:45:11.138Z,82.19
2022-08-01T02:46:11.110Z,82.29
2022-08-01T02:47:11.099Z,81.79
2022-08-01T02:48:11.079Z,82.09
2022-08-01T02:49:11.172Z,81.89
2022-08-01T02:50:11.069Z,81.89
2022-08-01T02:51:11.166Z,81.99
2022-08-01T02:52:11.020Z,81.99
2022-08-01T02:53:11.025Z,82.29
2022-08-01T02:54:11.103Z,81.89
2022-08-01T02:55:10.994Z,81.89
2022-08-01T02:56:10.990Z,82.70
2022-08-01T02:57:14.062Z,82.29
2022-08-01T02:58:10.941Z,82.39
2022-08-01T02:59:10.944Z,82.59
2022-08-01T03:00:10.920Z,82.59
2022-08-01T03:01:10.973Z,82.59
2022-08-01T03:02:11.140Z,82.64
2022-08-01T03:03:10.893Z,82.73
2022-08-01T03:04:10.882Z,82.93
2022-08-01T03:05:10.875Z,83.24
2022-08-01T03:06:10.853Z,83.24
2022-08-01T03:07:10.872Z,83.44
2022-08-01T03:08:12.058Z,83.84
2022-08-01T03:09:10.832Z,83.44
2022-08-01T03:10:10.801Z,83.74
2022-08-01T03:11:10.785Z,83.84
2022-08-01T03:12:10.792Z,84.15
2022-08-01T03:13:10.754Z,84.15
2022-08-01T03:14:10.783Z,84.19
2022-08-01T03:15:10.736Z,84.29
2022-08-01T03:16:10.726Z,84.29
2022-08-01T03:17:10.736Z,84.39
2022-08-01T03:18:10.716Z,83.98
2022-08-01T03:19:10.688Z,83.98
2022-08-01T03:20:10.677Z,83.68
2022-08-01T03:21:10.668Z,83.98
2022-08-01T03:22:10.686Z,84.19
2022-08-01T03:23:10.629Z,84.09
2022-08-01T03:24:10.617Z,84.69
2022-08-01T03:25:10.612Z,84.49
2022-08-01T03:26:10.619Z,84.39
2022-08-01T03:27:10.589Z,84.73
2022-08-01T03:28:10.591Z,84.83
2022-08-01T03:29:10.560Z,84.73
2022-08-01T03:30:10.549Z,84.63
2022-08-01T03:31:10.533Z,84.73
2022-08-01T03:32:10.533Z,85.03
2022-08-01T03:33:10.523Z,85.03
2022-08-01T03:34:10.490Z,85.03
2022-08-01T03:35:10.489Z,85.34
2022-08-01T03:36:10.472Z,85.84
2022-08-01T03:37:10.472Z,85.94
2022-08-01T03:38:17.702Z,85.44
2022-08-01T03:39:11.448Z,85.34
2022-08-01T03:40:10.430Z,85.54
2022-08-01T03:41:10.400Z,85.64
2022-08-01T03:42:10.738Z,86.15
2022-08-01T03:43:10.386Z,86.04
2022-08-01T03:44:10.370Z,85.54
2022-08-01T03:45:10.367Z,85.68
2022-08-01T03:46:10.352Z,85.78
2022-08-01T03:47:10.345Z,86.19
2022-08-01T03:48:10.322Z,85.88
2022-08-01T03:49:10.348Z,85.99
2022-08-01T04:03:00.426Z,86.39
2022-08-01T04:04:00.405Z,86.39
2022-08-01T04:05:00.395Z,86.29
2022-08-01T04:06:00.373Z,86.19
2022-08-01T04:07:00.368Z,86.53
2022-08-01T04:08:00.363Z,86.63
2022-08-01T04:09:00.334Z,86.33
2022-08-01T04:10:00.335Z,86.49
2022-08-01T04:11:00.320Z,86.29
2022-08-01T04:12:00.301Z,86.29
2022-08-01T04:13:00.307Z,86.29
2022-08-01T04:14:00.273Z,86.69
2022-08-01T04:15:00.256Z,86.69
2022-08-01T04:16:00.240Z,86.79
2022-08-01T04:17:07.245Z,86.59
2022-08-01T04:18:01.222Z,86.08
2022-08-01T04:19:00.214Z,86.08
2022-08-01T04:20:00.207Z,85.99
2022-08-01T04:21:00.183Z,85.99
2022-08-01T04:22:00.168Z,86.25
2022-08-01T04:23:01.178Z,86.25
2022-08-01T04:24:00.144Z,86.04
2022-08-01T04:25:00.126Z,86.15
2022-08-01T04:26:00.105Z,85.84
2022-08-01T04:27:00.107Z,85.60
2022-08-01T04:28:00.115Z,84.49
2022-08-01T04:29:00.093Z,84.59
2022-08-01T04:30:00.089Z,84.69
2022-08-01T04:31:02.257Z,84.69
2022-08-01T04:32:00.052Z,85.10
2022-08-01T04:33:00.044Z,85.05
2022-08-01T04:34:00.016Z,84.45
2022-08-01T04:35:00.007Z,84.45
2022-08-01T04:36:03.687Z,84.45
2022-08-01T04:36:59.985Z,84.75
2022-08-01T04:38:00.972Z,84.45
2022-08-01T04:39:00.958Z,84.35
2022-08-01T04:39:59.939Z,84.35
2022-08-01T04:41:08.516Z,84.41
2022-08-01T04:42:00.910Z,84.11
2022-08-01T04:42:59.899Z,84.71
2022-08-01T04:43:59.893Z,84.31
2022-08-01T04:44:59.891Z,84.51
2022-08-01T04:45:59.859Z,84.81
2022-08-01T04:46:59.849Z,85.11
2022-08-01T04:47:59.819Z,84.67
2022-08-01T04:48:59.869Z,84.47
2022-08-01T04:49:59.821Z,85.08
2022-08-01T04:50:59.811Z,84.97
2022-08-01T04:51:59.772Z,84.57
2022-08-01T04:52:59.800Z,84.17
2022-08-01T04:53:59.761Z,84.07
2022-08-01T04:54:59.754Z,84.27
2022-08-01T04:55:59.721Z,84.33
2022-08-01T04:56:59.702Z,84.33
2022-08-01T04:57:59.690Z,83.93
2022-08-01T04:58:59.716Z,83.83
2022-08-01T04:59:59.672Z,84.13
2022-08-01T05:00:59.721Z,84.13
2022-08-01T05:01:59.634Z,84.94
2022-08-01T05:02:59.625Z,84.53
2022-08-01T05:03:59.625Z,83.59
2022-08-01T05:04:59.616Z,84.19
2022-08-01T05:05:59.596Z,84.19
2022-08-01T05:06:59.583Z,84.39
2022-08-01T05:07:59.554Z,84.69
2022-08-01T05:08:59.555Z,83.79
2022-08-01T05:09:59.526Z,83.79
2022-08-01T05:10:59.525Z,84.09
2022-08-01T05:11:59.515Z,83.65
2022-08-01T05:12:59.533Z,83.75
2022-08-01T05:13:59.494Z,84.45
2022-08-01T05:14:59.484Z,83.84
2022-08-01T05:15:59.458Z,84.05
2022-08-01T05:16:59.445Z,83.40
2022-08-01T05:17:59.440Z,83.61
2022-08-01T05:19:00.440Z,83.20
2022-08-01T05:19:59.416Z,81.70
2022-08-01T05:20:59.386Z,82.60
2022-08-01T05:22:00.187Z,83.00
2022-08-01T05:22:59.364Z,83.47
2022-08-01T05:23:59.380Z,84.07
2022-08-01T05:24:59.352Z,83.47
2022-08-01T05:25:59.328Z,83.26
2022-08-01T05:26:59.307Z,83.06
2022-08-01T05:27:59.302Z,80.81
2022-08-01T05:28:59.292Z,82.92
2022-08-01T05:29:59.288Z,82.82
2022-08-01T05:30:59.271Z,81.41
2022-08-01T05:31:59.239Z,82.38
2022-08-01T05:32:59.238Z,80.98
2022-08-01T05:33:59.220Z,79.87
2022-08-01T05:34:59.240Z,79.87
2022-08-01T05:35:59.211Z,81.18
2022-08-01T05:36:59.199Z,81.84
2022-08-01T05:37:59.162Z,82.34
2022-08-01T05:38:59.150Z,82.24
2022-08-01T05:39:59.150Z,81.64
2022-08-01T05:40:59.131Z,81.84
2022-08-01T05:41:59.122Z,81.34
2022-08-01T05:42:59.112Z,79.90
2022-08-01T05:43:59.082Z,79.60
2022-08-01T05:44:59.092Z,79.39
2022-08-01T05:45:59.060Z,79.69
2022-08-01T05:46:59.041Z,78.89
2022-08-01T05:47:59.048Z,76.75
2022-08-01T05:48:59.053Z,77.05
2022-08-01T05:49:59.026Z,77.15
2022-08-01T05:50:59.095Z,77.55
2022-08-01T05:51:58.983Z,77.51
2022-08-01T05:52:58.979Z,77.31
2022-08-01T05:53:58.957Z,79.02
2022-08-01T05:54:58.966Z,79.92
2022-08-01T05:55:58.926Z,80.32
2022-08-01T05:56:58.935Z,79.78
2022-08-01T05:57:58.902Z,78.08
2022-08-01T05:58:58.897Z,76.57
2022-08-01T05:59:58.901Z,76.07
2022-08-01T06:00:58.886Z,75.37
2022-08-01T06:01:58.905Z,75.47
2022-08-01T06:02:58.847Z,75.54
2022-08-01T06:03:58.831Z,74.63
2022-08-01T06:04:58.829Z,74.54
2022-08-01T06:05:58.809Z,74.33
2022-08-01T06:06:58.812Z,74.70
2022-08-01T06:07:58.787Z,74.10
2022-08-01T06:08:58.783Z,74.10
2022-08-01T06:09:58.773Z,74.20
2022-08-01T06:10:58.750Z,74.10
2022-08-01T06:11:58.756Z,73.90
2022-08-01T06:12:58.719Z,73.96
2022-08-01T06:13:58.714Z,73.86
2022-08-01T06:14:58.719Z,73.96
2022-08-01T06:15:58.687Z,73.86
2022-08-01T06:16:58.670Z,73.66
2022-08-01T06:17:58.663Z,73.72
2022-08-01T06:18:58.648Z,73.43
2022-08-01T06:19:58.643Z,73.13
2022-08-01T06:20:58.631Z,73.03
2022-08-01T06:21:58.603Z,72.72
2022-08-01T06:22:59.905Z,72.72
2022-08-01T06:23:58.574Z,72.92
2022-08-01T06:24:59.635Z,72.53
2022-08-01T06:25:58.560Z,72.19
2022-08-01T06:26:58.547Z,72.69
2022-08-01T06:27:58.520Z,72.89
2022-08-01T06:28:58.521Z,72.99
2022-08-01T06:29:58.506Z,72.49
2022-08-01T06:30:58.508Z,72.29
2022-08-01T06:31:58.468Z,72.19
2022-08-01T06:32:58.464Z,72.59
2022-08-01T06:33:58.441Z,72.49
2022-08-01T06:34:58.433Z,72.69
2022-08-01T06:35:58.434Z,72.69
2022-08-01T06:36:58.406Z,72.29
2022-08-01T06:37:58.385Z,72.86
2022-08-01T06:38:58.386Z,72.66
2022-08-01T06:39:58.366Z,72.16
2022-08-01T06:40:58.355Z,72.06
2022-08-01T06:41:58.334Z,72.26
2022-08-01T06:42:58.326Z,72.22
2022-08-01T06:43:58.307Z,72.22
2022-08-01T06:44:58.313Z,71.92
2022-08-01T06:45:58.294Z,71.52
2022-08-01T06:46:58.268Z,71.72
2022-08-01T06:47:58.263Z,71.72
2022-08-01T06:48:58.291Z,71.92
2022-08-01T06:49:58.231Z,71.72
2022-08-01T06:50:58.228Z,71.72
2022-08-01T06:51:58.199Z,71.52
2022-08-01T06:52:58.189Z,71.83
2022-08-01T06:53:58.178Z,72.02
2022-08-01T06:54:58.173Z,71.83
2022-08-01T06:55:58.160Z,72.32
2022-08-01T06:56:58.139Z,72.02
2022-08-01T06:57:58.119Z,72.02
2022-08-01T06:58:58.111Z,72.02
2022-08-01T06:59:58.102Z,71.92
2022-08-01T07:00:58.143Z,72.13
2022-08-01T07:01:58.071Z,72.42
2022-08-01T07:02:58.044Z,71.83
2022-08-01T07:03:58.042Z,72.22
2022-08-01T07:04:58.034Z,73.02
2022-08-01T07:05:58.031Z,72.62
2022-08-01T07:06:58.034Z,72.52
2022-08-01T07:07:57.973Z,72.13
2022-08-01T07:09:00.323Z,72.52
2022-08-01T07:09:58.942Z,72.42
2022-08-01T07:10:57.951Z,72.02
2022-08-01T07:11:57.930Z,72.02
2022-08-01T07:12:57.903Z,72.42
2022-08-01T07:13:57.905Z,72.62
2022-08-01T07:14:57.916Z,72.62
2022-08-01T07:15:57.903Z,72.42
2022-08-01T07:16:57.855Z,72.22
2022-08-01T07:17:57.835Z,72.52
2022-08-01T07:18:57.838Z,72.72
2022-08-01T07:19:58.823Z,72.62
2022-08-01T07:20:57.838Z,72.62
2022-08-01T07:21:57.793Z,72.52
2022-08-01T07:22:57.795Z,72.62
2022-08-01T07:23:57.768Z,72.22
2022-08-01T07:24:57.772Z,72.42
2022-08-01T07:26:00.745Z,72.02
2022-08-01T07:26:57.721Z,72.22
2022-08-01T07:27:57.729Z,72.32
2022-08-01T07:28:57.707Z,72.39
2022-08-01T07:29:57.692Z,71.59
2022-08-01T07:30:57.678Z,71.69
2022-08-01T07:31:57.658Z,71.99
2022-08-01T07:32:57.647Z,72.05
2022-08-01T07:33:57.642Z,71.36
2022-08-01T07:34:57.636Z,71.06
2022-08-01T07:35:57.611Z,70.65
2022-08-01T07:36:57.599Z,70.36
2022-08-01T07:37:57.571Z,70.76
2022-08-01T07:38:57.581Z,71.06
2022-08-01T07:39:57.560Z,70.65
2022-08-01T07:40:57.562Z,70.46
2022-08-01T07:42:07.167Z,70.46
2022-08-01T07:42:58.522Z,70.26
2022-08-01T07:44:00.658Z,70.56
2022-08-01T07:44:58.484Z,70.65
2022-08-01T07:45:57.484Z,70.26
2022-08-01T07:46:57.471Z,70.36
2022-08-01T07:47:57.444Z,70.32
2022-08-01T07:48:57.473Z,70.23
2022-08-01T07:49:57.422Z,70.03
2022-08-01T07:50:57.434Z,70.03
2022-08-01T07:52:03.897Z,70.29
2022-08-01T07:52:58.385Z,69.69
2022-08-01T07:53:57.373Z,70.19
2022-08-01T07:54:57.345Z,68.99
2022-08-01T07:55:57.356Z,68.70
2022-08-01T07:56:57.335Z,68.90
2022-08-01T07:57:57.316Z,69.20
2022-08-01T07:58:57.316Z,69.76
2022-08-01T07:59:58.273Z,68.46
2022-08-01T08:00:57.296Z,68.16
2022-08-01T08:01:57.372Z,68.56
2022-08-01T08:02:57.246Z,68.86
2022-08-01T08:03:57.251Z,68.53
2022-08-01T08:04:57.227Z,68.23
2022-08-01T08:05:59.975Z,67.90
2022-08-01T08:06:57.209Z,67.60
2022-08-01T08:07:57.187Z,67.50
2022-08-01T08:08:57.167Z,67.30
2022-08-01T08:09:57.170Z,67.70
2022-08-01T08:10:57.140Z,66.61
2022-08-01T08:11:57.130Z,66.91
2022-08-01T08:12:57.120Z,67.10
2022-08-01T08:13:57.120Z,67.20
2022-08-01T08:14:57.548Z,67.00
2022-08-01T08:15:57.080Z,67.20
2022-08-01T08:16:57.086Z,66.77
2022-08-01T08:17:57.060Z,66.50
2022-08-01T08:18:57.043Z,66.31
2022-08-01T08:19:57.062Z,66.91
2022-08-01T08:20:57.035Z,66.80
2022-08-01T08:21:57.013Z,66.71
2022-08-01T08:22:56.991Z,66.11
2022-08-01T08:23:56.984Z,66.80
2022-08-01T08:24:56.982Z,66.31
2022-08-01T08:25:56.986Z,66.64
2022-08-01T08:26:56.980Z,66.94
2022-08-01T08:27:56.936Z,67.13
2022-08-01T08:28:56.913Z,66.50
2022-08-01T08:29:56.944Z,66.41
2022-08-01T08:30:56.910Z,67.10
2022-08-01T08:31:57.085Z,66.27
2022-08-01T08:32:56.857Z,66.57
2022-08-01T08:33:56.870Z,66.44
2022-08-01T08:34:56.850Z,65.55
2022-08-01T08:35:56.858Z,64.95
2022-08-01T08:36:56.807Z,65.25
2022-08-01T08:37:58.223Z,64.72
2022-08-01T08:38:56.781Z,64.62
2022-08-01T08:39:56.787Z,65.31
2022-08-01T08:40:56.779Z,64.32
2022-08-01T08:41:56.759Z,63.60
2022-08-01T08:42:56.759Z,63.20
2022-08-01T08:43:56.718Z,63.60
2022-08-01T08:44:56.717Z,63.23
2022-08-01T08:45:59.389Z,63.13
2022-08-01T08:46:56.679Z,63.16
2022-08-01T08:47:56.699Z,63.66
2022-08-01T08:48:56.741Z,64.36
2022-08-01T08:49:56.671Z,64.36
2022-08-01T08:50:56.639Z,63.95
2022-08-01T08:51:56.611Z,64.45
2022-08-01T08:52:56.621Z,64.45
2022-08-01T08:53:56.599Z,63.26
2022-08-01T08:54:56.596Z,63.06
2022-08-01T08:55:56.808Z,63.36
2022-08-01T08:56:56.559Z,63.79
2022-08-01T08:57:56.563Z,64.18
2022-08-01T08:58:56.533Z,64.09
2022-08-01T08:59:56.525Z,64.42
2022-08-01T09:00:56.495Z,64.84
2022-08-01T09:01:56.501Z,65.74
2022-08-01T09:02:56.518Z,66.83
2022-08-01T09:03:56.474Z,65.74
2022-08-01T09:04:56.454Z,65.84
2022-08-01T09:05:56.445Z,66.27
2022-08-01T09:06:56.447Z,66.17
2022-08-01T09:07:56.428Z,66.67
2022-08-01T09:08:56.396Z,66.57
2022-08-01T09:09:56.385Z,65.84
2022-08-01T09:10:56.389Z,65.74
2022-08-01T09:11:57.592Z,65.44
2022-08-01T09:12:56.337Z,65.21
2022-08-01T09:13:56.352Z,65.41
2022-08-01T09:14:56.325Z,65.61
2022-08-01T09:15:56.310Z,64.69
2022-08-01T09:16:56.299Z,64.78
2022-08-01T09:17:56.290Z,64.61
2022-08-01T09:18:56.279Z,65.18
2022-08-01T09:19:57.675Z,64.75
2022-08-01T09:20:56.261Z,63.95
2022-08-01T09:21:56.250Z,63.43
2022-08-01T09:22:56.219Z,63.10
2022-08-01T09:23:56.214Z,62.50
2022-08-01T09:24:56.190Z,62.87
2022-08-01T09:25:56.825Z,62.57
2022-08-01T09:26:56.161Z,62.54
2022-08-01T09:27:56.151Z,61.35
2022-08-01T09:28:56.140Z,60.56
2022-08-01T09:30:01.110Z,60.96
2022-08-01T09:30:57.130Z,61.35
2022-08-01T09:31:56.114Z,60.33
2022-08-01T09:32:56.093Z,59.83
2022-08-01T09:33:56.072Z,59.04
2022-08-01T09:34:56.052Z,59.39
2022-08-01T09:35:56.063Z,59.62
2022-08-01T09:36:56.016Z,59.95
2022-08-01T09:37:56.023Z,60.35
2022-08-01T09:38:56.008Z,60.74
2022-08-01T09:39:55.995Z,60.84
2022-08-01T09:40:58.382Z,61.83
2022-08-01T09:41:56.469Z,61.44
2022-08-01T09:42:55.957Z,61.44
2022-08-01T09:43:55.935Z,61.31
2022-08-01T09:44:55.907Z,60.42
2022-08-01T09:45:57.793Z,60.55
2022-08-01T09:46:55.884Z,60.84
2022-08-01T10:03:22.115Z,58.32
2022-08-01T10:04:22.014Z,58.72
2022-08-01T10:05:22.012Z,58.12
2022-08-01T10:06:24.876Z,58.22
2022-08-01T10:07:21.984Z,57.42
2022-08-01T10:08:23.398Z,57.85
2022-08-01T10:09:21.955Z,57.32
2022-08-01T10:10:21.943Z,57.62
2022-08-01T10:11:22.924Z,57.69
2022-08-01T10:12:22.911Z,56.60
2022-08-01T10:13:21.904Z,57.17
2022-08-01T10:14:21.899Z,56.11
2022-08-01T10:15:21.885Z,56.68
2022-08-01T10:16:22.852Z,56.95
2022-08-01T10:17:22.747Z,56.74
2022-08-01T10:18:26.136Z,56.02
2022-08-01T10:19:21.816Z,56.13
2022-08-01T10:20:31.018Z,56.40
2022-08-01T10:21:56.753Z,55.18
2022-08-01T10:22:22.939Z,55.08
2022-08-01T10:23:21.767Z,54.49
2022-08-01T10:24:21.758Z,54.86
2022-08-01T10:25:42.541Z,54.46
2022-08-01T10:26:22.731Z,53.77
2022-08-01T10:27:35.719Z,54.04
2022-08-01T10:28:24.271Z,53.28
2022-08-01T10:29:45.327Z,53.80
2022-08-01T10:30:23.655Z,53.77
2022-08-01T10:31:30.552Z,53.40
2022-08-01T10:32:22.651Z,54.39
2022-08-01T10:33:50.611Z,53.30
2022-08-01T10:34:23.095Z,53.23
2022-08-01T10:35:47.127Z,53.55
2022-08-01T10:36:22.901Z,53.58
2022-08-01T10:37:21.595Z,53.58
2022-08-01T10:38:21.583Z,53.28
2022-08-01T10:39:21.573Z,54.39
2022-08-01T10:40:36.969Z,55.46
2022-08-01T10:41:22.535Z,53.88
2022-08-01T10:42:21.531Z,53.11
2022-08-01T10:43:22.340Z,53.08
2022-08-01T10:44:21.503Z,52.17
2022-08-01T10:45:21.517Z,52.36
2022-08-01T10:46:21.485Z,52.14
2022-08-01T10:47:26.271Z,52.14
2022-08-01T10:48:22.447Z,52.04
2022-08-01T10:49:21.488Z,51.84
2022-08-01T10:50:21.865Z,53.00
2022-08-01T10:51:21.453Z,51.92
2022-08-01T10:52:21.398Z,52.01
2022-08-01T10:53:24.287Z,51.92
2022-08-01T10:54:22.387Z,52.09
2022-08-01T10:55:21.358Z,52.09
2022-08-01T10:56:21.354Z,51.50
2022-08-01T10:57:23.180Z,52.09
2022-08-01T10:58:22.322Z,52.69
2022-08-01T10:59:49.097Z,52.31
2022-08-01T11:00:22.301Z,52.09
2022-08-01T11:01:21.390Z,52.98
2022-08-01T11:02:21.273Z,51.77
2022-08-01T11:03:35.901Z,51.87
2022-08-01T11:04:22.249Z,52.24
2022-08-01T11:05:21.230Z,50.95
2022-08-01T11:06:21.222Z,51.35
2022-08-01T11:07:21.212Z,49.48
2022-08-01T11:08:21.182Z,50.04
2022-08-01T11:09:21.197Z,50.12
2022-08-01T11:10:24.290Z,49.30
2022-08-01T11:11:21.162Z,48.49
2022-08-01T11:12:23.445Z,47.41
2022-08-01T11:13:21.132Z,48.39
2022-08-01T11:14:26.381Z,47.60
2022-08-01T11:15:29.194Z,48.12
2022-08-01T11:16:24.340Z,48.32
2022-08-01T11:17:21.081Z,49.13
2022-08-01T11:18:21.076Z,49.13
2022-08-01T11:19:22.046Z,49.50
2022-08-01T11:20:21.049Z,48.96
2022-08-01T11:21:56.897Z,50.63
2022-08-01T11:22:25.434Z,49.52
2022-08-01T11:23:21.656Z,49.60
2022-08-01T11:24:21.007Z,48.86
2022-08-01T11:25:20.989Z,49.27
2022-08-01T11:26:29.070Z,49.89
2022-08-01T11:27:23.585Z,50.61
2022-08-01T11:28:28.900Z,50.90
2022-08-01T11:29:22.776Z,51.00
2022-08-01T11:30:21.375Z,50.41
2022-08-01T11:31:20.909Z,49.84
2022-08-01T11:32:20.922Z,50.83
2022-08-01T11:33:20.904Z,51.30
2022-08-01T11:34:20.872Z,50.51
2022-08-01T11:35:20.857Z,50.51
2022-08-01T11:36:36.966Z,51.50
2022-08-01T11:37:21.853Z,51.10
2022-08-01T11:38:20.829Z,50.21
2022-08-01T11:39:20.812Z,50.51
2022-08-01T11:40:22.828Z,50.76
2022-08-01T11:41:20.792Z,49.74
2022-08-01T11:42:21.827Z,49.35
2022-08-01T11:43:20.773Z,49.25
2022-08-01T11:44:21.151Z,49.15
2022-08-01T11:45:20.733Z,50.61
2022-08-01T11:46:20.736Z,48.88
2022-08-01T11:47:21.249Z,47.88
2022-08-01T11:48:20.714Z,48.54
2022-08-01T11:49:20.762Z,50.59
2022-08-01T11:50:20.685Z,48.22
2022-08-01T11:51:25.680Z,46.62
2022-08-01T11:52:21.664Z,47.53
2022-08-01T11:53:22.069Z,48.34
2022-08-01T11:54:35.097Z,48.28
2022-08-01T11:55:21.616Z,48.16
2022-08-01T11:56:20.607Z,48.28
2022-08-01T11:57:22.939Z,47.60
2022-08-01T11:58:22.063Z,48.14
2022-08-01T11:59:21.578Z,48.19
2022-08-01T12:00:20.557Z,46.10
2022-08-01T12:01:20.538Z,46.22
2022-08-01T12:02:30.774Z,46.79
2022-08-01T12:03:31.597Z,45.90
2022-08-01T12:04:21.521Z,47.11
2022-08-01T12:05:20.500Z,46.18
2022-08-01T12:06:20.491Z,45.07
2022-08-01T12:07:20.481Z,45.07
2022-08-01T12:08:20.471Z,45.56
2022-08-01T12:09:20.450Z,46.40
2022-08-01T12:10:20.442Z,46.81
2022-08-01T12:11:20.432Z,47.03
2022-08-01T12:12:20.425Z,47.94
2022-08-01T12:13:20.402Z,48.44
2022-08-01T12:14:20.399Z,49.05
2022-08-01T12:15:20.385Z,49.96
2022-08-01T12:16:20.363Z,50.26
2022-08-01T12:17:20.346Z,50.38
2022-08-01T12:18:20.351Z,50.48
2022-08-01T12:19:20.324Z,50.09
2022-08-01T12:20:20.317Z,50.59
2022-08-01T12:21:20.326Z,50.46
2022-08-01T12:22:20.295Z,49.69
2022-08-01T12:23:20.284Z,48.35
2022-08-01T12:24:20.286Z,46.43
2022-08-01T12:25:20.256Z,46.53
2022-08-01T12:26:28.433Z,47.26
2022-08-01T12:27:21.228Z,48.76
2022-08-01T12:28:20.222Z,48.88
2022-08-01T12:29:20.208Z,49.50
2022-08-01T12:30:20.192Z,49.72
2022-08-01T12:31:20.174Z,50.81
2022-08-01T12:32:28.028Z,51.82
2022-08-01T12:33:21.158Z,51.32
2022-08-01T12:34:20.149Z,51.32
2022-08-01T12:35:20.129Z,50.88
2022-08-01T12:36:20.116Z,50.49
2022-08-01T12:37:20.092Z,49.97
2022-08-01T12:38:20.128Z,49.82
2022-08-01T12:39:20.079Z,48.30
2022-08-01T12:40:20.072Z,48.65
2022-08-01T12:41:20.040Z,46.73
2022-08-01T12:42:20.042Z,45.51
2022-08-01T12:43:27.960Z,47.20
2022-08-01T12:44:21.023Z,46.00
2022-08-01T12:45:20.008Z,45.49
2022-08-01T12:46:19.984Z,44.02
2022-08-01T12:47:19.971Z,44.78
2022-08-01T12:48:19.964Z,44.17
2022-08-01T12:49:19.991Z,44.81
2022-08-01T12:50:19.938Z,43.13
2022-08-01T12:51:19.913Z,43.59
2022-08-01T12:52:19.905Z,42.71
2022-08-01T12:53:19.911Z,42.22
2022-08-01T12:54:19.877Z,42.22
2022-08-01T12:55:19.867Z,42.69
2022-08-01T12:56:19.845Z,40.53
2022-08-01T12:57:19.837Z,40.04
2022-08-01T12:58:19.839Z,40.78
2022-08-01T12:59:19.803Z,42.03
2022-08-01T13:00:19.824Z,41.33
2022-08-01T13:01:19.848Z,40.50
2022-08-01T13:02:19.785Z,39.80
2022-08-01T13:03:19.778Z,40.23
2022-08-01T13:04:19.757Z,40.25
2022-08-01T13:05:19.750Z,40.35
2022-08-01T13:06:19.740Z,40.89
2022-08-01T13:07:19.718Z,39.08
2022-08-01T13:08:19.721Z,37.83
2022-08-01T13:09:19.700Z,39.31
2022-08-01T13:10:19.691Z,40.23
2022-08-01T13:11:19.673Z,41.74
2022-08-01T13:12:19.652Z,41.36
2022-08-01T13:13:27.770Z,42.25
2022-08-01T13:14:22.288Z,41.58
2022-08-01T13:15:19.624Z,41.52
2022-08-01T13:16:31.162Z,42.37
2022-08-01T13:17:20.592Z,44.34
2022-08-01T13:18:19.613Z,46.06
2022-08-01T13:19:19.564Z,47.16
2022-08-01T13:20:19.553Z,48.07